createdAt,value
2019-04-10T00:01:58.088Z,7.45
2019-04-10T00:07:10.367Z,7.65
2019-04-10T00:12:05.311Z,8.18
2019-04-10T00:17:07.152Z,6.78
2019-04-10T00:22:09.688Z,7.25
2019-04-10T00:27:12.459Z,6.53
2019-04-10T00:32:14.460Z,7.25
2019-04-10T00:37:23.955Z,6.95
2019-04-10T00:42:20.967Z,7.40
2019-04-10T00:47:23.279Z,6.95
2019-04-10T00:52:25.233Z,6.75
2019-04-10T00:57:27.524Z,6.87
2019-04-10T01:02:29.193Z,6.67
2019-04-10T01:07:36.662Z,6.67
2019-04-10T01:12:34.318Z,6.40
2019-04-10T01:17:36.040Z,6.25
2019-04-10T01:22:37.671Z,6.08
2019-04-10T01:27:41.000Z,6.00
2019-04-10T01:32:43.872Z,6.65
2019-04-10T01:37:51.823Z,6.10
2019-04-10T01:43:02.394Z,6.70
2019-04-10T01:47:53.297Z,6.12
2019-04-10T01:52:55.541Z,6.83
2019-04-10T01:57:58.858Z,6.67
2019-04-10T02:03:01.389Z,6.40
2019-04-10T02:08:09.003Z,6.12
2019-04-10T02:13:07.396Z,6.83
2019-04-10T02:18:09.057Z,5.47
2019-04-10T02:23:10.689Z,6.17
2019-04-10T02:28:13.076Z,6.08
2019-04-10T02:33:15.896Z,6.37
2019-04-10T02:38:35.790Z,6.17
2019-04-10T02:43:21.282Z,6.08
2019-04-10T02:48:23.497Z,6.20
2019-04-10T02:53:25.648Z,6.47
2019-04-10T02:58:27.590Z,6.05
2019-04-10T03:03:29.986Z,6.00
2019-04-10T03:08:44.782Z,5.83
2019-04-10T03:13:35.886Z,5.50
2019-04-10T03:18:37.648Z,5.60
2019-04-10T03:23:40.344Z,6.90
2019-04-10T03:28:43.004Z,6.20
2019-04-10T03:33:50.510Z,6.42
2019-04-10T03:38:58.601Z,6.40
2019-04-10T03:43:56.441Z,6.00
2019-04-10T03:48:58.161Z,6.67
2019-04-10T03:53:59.802Z,7.10
2019-04-10T03:59:02.240Z,7.72
2019-04-10T04:04:04.955Z,9.50
2019-04-10T04:09:10.911Z,17.57
2019-04-10T04:14:10.353Z,22.58
2019-04-10T04:19:12.184Z,17.48
2019-04-10T04:24:13.831Z,15.20
2019-04-10T04:29:16.426Z,14.35
2019-04-10T04:34:18.644Z,14.85
2019-04-10T04:39:26.412Z,15.32
2019-04-10T04:44:24.200Z,14.00
2019-04-10T04:49:26.409Z,14.87
2019-04-10T04:54:28.888Z,14.13
2019-04-10T04:59:30.725Z,14.38
2019-04-10T05:04:33.666Z,16.35
2019-04-10T05:09:38.763Z,14.25
2019-04-10T05:14:39.907Z,13.10
2019-04-10T05:19:42.906Z,12.23
2019-04-10T05:24:44.694Z,13.93
2019-04-10T05:29:47.141Z,13.78
2019-04-10T05:34:48.842Z,12.20
2019-04-10T05:39:52.181Z,11.53
2019-04-10T05:44:54.448Z,12.43
2019-04-10T05:49:56.158Z,12.50
2019-04-10T05:54:57.862Z,12.95
2019-04-10T06:00:00.495Z,11.90
2019-04-10T06:05:04.244Z,12.18
2019-04-10T06:10:09.027Z,12.05
2019-04-10T06:15:10.737Z,11.48
2019-04-10T06:20:14.156Z,11.55
2019-04-10T06:25:18.832Z,11.25
2019-04-10T06:30:20.601Z,10.03
2019-04-10T06:35:22.217Z,10.55
2019-04-10T06:40:25.824Z,11.95
2019-04-10T06:45:28.003Z,10.63
2019-04-10T06:50:30.486Z,10.43
2019-04-10T06:55:33.255Z,11.48
2019-04-10T07:00:35.220Z,10.35
2019-04-10T07:05:46.899Z,9.95
2019-04-10T07:10:49.905Z,9.93
2019-04-10T07:15:46.609Z,10.30
2019-04-10T07:20:48.980Z,10.23
2019-04-10T07:25:51.979Z,9.70
2019-04-10T07:30:56.834Z,10.25
2019-04-10T07:35:57.868Z,10.50
2019-04-10T07:40:59.531Z,10.30
2019-04-10T07:46:01.207Z,9.20
2019-04-10T07:51:02.947Z,9.25
2019-04-10T07:56:09.127Z,10.40
2019-04-10T08:01:08.572Z,10.20
2019-04-10T08:06:11.083Z,9.45
2019-04-10T08:11:13.967Z,9.00
2019-04-10T08:16:16.961Z,9.40
2019-04-10T08:21:19.782Z,8.10
2019-04-10T08:26:22.714Z,8.90
2019-04-10T08:31:25.318Z,9.83
2019-04-10T08:36:28.164Z,9.73
2019-04-10T08:41:30.035Z,8.58
2019-04-10T08:46:31.602Z,8.10
2019-04-10T08:51:33.236Z,9.50
2019-04-10T08:56:35.047Z,8.58
2019-04-10T09:01:37.643Z,8.18
2019-04-10T09:06:39.844Z,8.78
2019-04-10T09:11:43.045Z,8.70
2019-04-10T09:16:44.879Z,8.80
2019-04-10T09:21:46.520Z,8.73
2019-04-10T09:26:48.684Z,8.13
2019-04-10T09:31:50.530Z,9.28
2019-04-10T09:36:52.090Z,7.78
2019-04-10T09:41:54.344Z,8.03
2019-04-10T09:46:56.158Z,7.72
2019-04-10T09:51:58.623Z,8.40
2019-04-10T09:57:01.258Z,7.83
2019-04-10T10:02:03.210Z,7.95
2019-04-10T10:07:05.601Z,7.92
2019-04-10T10:12:07.445Z,7.90
2019-04-10T10:17:09.109Z,8.03
2019-04-10T10:22:10.825Z,7.50
2019-04-10T10:27:13.550Z,7.40
2019-04-10T10:32:15.292Z,7.55
2019-04-10T10:37:16.871Z,7.45
2019-04-10T10:42:19.321Z,7.78
2019-04-10T10:47:22.231Z,7.28
2019-04-10T10:52:24.065Z,7.45
2019-04-10T10:57:26.896Z,7.28
2019-04-10T11:02:29.659Z,6.67
2019-04-10T11:07:31.496Z,6.83
2019-04-10T11:12:34.166Z,7.35
2019-04-10T11:17:36.288Z,7.30
2019-04-10T11:22:39.730Z,6.95
2019-04-10T11:27:42.569Z,6.45
2019-04-10T11:32:44.553Z,6.95
2019-04-10T11:37:49.648Z,7.17
2019-04-10T11:42:51.524Z,6.70
2019-04-10T11:47:53.459Z,6.72
2019-04-10T11:52:56.746Z,6.92
2019-04-10T11:57:59.964Z,6.25
2019-04-10T12:03:01.726Z,6.25
2019-04-10T12:13:08.175Z,6.03
2019-04-10T12:18:10.681Z,6.22
2019-04-10T12:23:12.680Z,5.50
2019-04-10T12:28:14.395Z,6.22
2019-04-10T12:33:17.111Z,6.00
2019-04-10T12:38:19.332Z,5.95
2019-04-10T12:43:21.041Z,6.58
2019-04-10T12:48:23.059Z,6.85
2019-04-10T12:53:24.915Z,7.50
2019-04-10T12:58:26.691Z,7.47
2019-04-10T13:03:29.429Z,6.50
2019-04-10T13:08:51.524Z,6.60
2019-04-10T13:13:35.830Z,6.37
2019-04-10T13:18:38.592Z,6.15
2019-04-10T13:23:41.217Z,5.50
2019-04-10T13:28:43.980Z,5.50
2019-04-10T13:33:45.597Z,6.22
2019-04-10T13:38:48.857Z,5.70
2019-04-10T13:43:52.532Z,5.60
2019-04-10T13:48:55.580Z,5.03
2019-04-10T13:53:58.455Z,6.28
2019-04-10T13:59:00.594Z,5.62
2019-04-10T14:04:02.961Z,6.00
2019-04-10T14:09:26.355Z,6.03
2019-04-10T14:14:16.221Z,5.97
2019-04-10T14:19:17.964Z,5.28
2019-04-10T14:24:20.078Z,6.83
2019-04-10T14:29:24.693Z,6.10
2019-04-10T14:34:28.406Z,7.90
2019-04-10T14:39:31.329Z,6.10
2019-04-10T14:44:33.348Z,6.15
2019-04-10T14:49:35.472Z,6.28
2019-04-10T14:54:37.596Z,6.67
2019-04-10T14:59:40.002Z,6.50
2019-04-10T15:04:41.812Z,6.40
2019-04-10T15:09:45.239Z,6.28
2019-04-10T15:14:47.831Z,7.47
2019-04-10T15:19:51.892Z,8.03
2019-04-10T15:25:06.867Z,13.85
2019-04-10T15:30:08.672Z,17.85
2019-04-10T15:35:10.511Z,29.80
2019-04-10T15:40:19.916Z,53.55
2019-04-10T15:45:16.451Z,53.38
2019-04-10T15:50:18.143Z,42.03
2019-04-10T15:55:20.102Z,27.15
2019-04-10T16:00:23.193Z,24.10
2019-04-10T16:05:25.801Z,21.52
2019-04-10T16:10:30.943Z,22.25
2019-04-10T16:15:34.658Z,20.23
2019-04-10T16:20:36.930Z,19.73
2019-04-10T16:25:40.581Z,18.77
2019-04-10T16:30:43.224Z,19.50
2019-04-10T16:35:46.286Z,17.35
2019-04-10T16:40:48.140Z,15.68
2019-04-10T16:45:50.980Z,15.98
2019-04-10T16:50:53.889Z,15.30
2019-04-10T16:55:56.920Z,14.75
2019-04-10T17:00:58.964Z,13.38
2019-04-10T17:06:01.899Z,12.95
2019-04-10T17:11:05.324Z,10.70
2019-04-10T17:16:07.349Z,11.10
2019-04-10T17:21:09.110Z,9.15
2019-04-10T17:26:12.829Z,9.33
2019-04-10T17:31:16.235Z,7.70
2019-04-10T17:36:18.915Z,8.25
2019-04-10T17:41:21.860Z,7.33
2019-04-10T17:46:24.888Z,7.50
2019-04-10T17:51:28.299Z,8.00
2019-04-10T17:56:30.525Z,7.62
2019-04-10T18:01:33.100Z,7.97
2019-04-10T18:06:35.302Z,7.85
2019-04-10T18:11:37.447Z,7.47
2019-04-10T18:16:40.134Z,7.28
2019-04-10T18:21:44.171Z,7.50
2019-04-10T18:26:45.716Z,7.75
2019-04-10T18:31:47.424Z,7.28
2019-04-10T18:36:50.741Z,8.03
2019-04-10T18:41:52.665Z,7.45
2019-04-10T18:46:54.396Z,6.62
2019-04-10T18:51:56.337Z,8.45
2019-04-10T18:56:58.136Z,7.65
2019-04-10T19:02:18.703Z,8.65
2019-04-10T19:07:21.241Z,8.33
2019-04-10T19:12:23.014Z,7.15
2019-04-10T19:17:24.659Z,6.50
2019-04-10T19:22:26.458Z,6.37
2019-04-10T19:27:29.232Z,6.92
2019-04-10T19:32:33.307Z,7.22
2019-04-10T19:37:36.724Z,6.00
2019-04-10T19:42:39.745Z,6.05
2019-04-10T19:47:42.248Z,6.58
2019-04-10T19:52:44.633Z,5.25
2019-04-10T19:57:47.743Z,6.35
2019-04-10T20:02:49.649Z,6.20
2019-04-10T20:07:51.434Z,6.35
2019-04-10T20:12:53.295Z,5.30
2019-04-10T20:17:55.077Z,6.03
2019-04-10T20:22:56.842Z,6.00
2019-04-10T20:27:58.623Z,5.60
2019-04-10T20:33:00.734Z,6.60
2019-04-10T20:38:03.087Z,5.92
2019-04-10T20:43:04.966Z,5.90
2019-04-10T20:48:06.642Z,6.33
2019-04-10T20:53:09.538Z,6.58
2019-04-10T20:58:11.384Z,5.70
2019-04-10T21:03:13.519Z,5.65
2019-04-10T21:08:15.740Z,5.33
2019-04-10T21:13:17.542Z,5.70
2019-04-10T21:18:19.491Z,5.85
2019-04-10T21:23:22.326Z,5.33
2019-04-10T21:28:23.991Z,5.40
2019-04-10T21:33:28.513Z,5.33
2019-04-10T21:38:30.297Z,5.15
2019-04-10T21:43:31.858Z,5.55
2019-04-10T21:48:33.648Z,5.67
2019-04-10T21:53:35.975Z,5.78
2019-04-10T21:58:38.937Z,5.35
2019-04-10T22:03:41.475Z,5.10
2019-04-10T22:08:49.745Z,4.53
2019-04-10T22:13:52.680Z,4.92
2019-04-10T22:18:54.625Z,4.83
2019-04-10T22:23:56.687Z,5.30
2019-04-10T22:28:58.482Z,5.33
2019-04-10T22:34:00.821Z,4.90
2019-04-10T22:39:04.659Z,5.37
2019-04-10T22:44:08.289Z,4.65
2019-04-10T22:49:10.403Z,4.83
2019-04-10T22:54:13.417Z,4.80
2019-04-10T22:59:16.128Z,4.55
2019-04-10T23:04:17.955Z,4.80
2019-04-10T23:09:20.208Z,4.90
2019-04-10T23:14:22.751Z,4.75
2019-04-10T23:19:25.733Z,4.45
2019-04-10T23:24:27.751Z,4.97
2019-04-10T23:29:30.868Z,4.58
2019-04-10T23:34:32.801Z,4.90
2019-04-10T23:39:34.497Z,4.80
2019-04-10T23:44:37.391Z,4.97
2019-04-10T23:49:39.565Z,5.60
2019-04-10T23:54:41.621Z,5.50
2019-04-10T23:59:43.359Z,4.25
